createdAt,value
2022-11-12T00:01:44.170Z,16.67
2022-11-12T00:04:46.399Z,25.93
2022-11-12T00:07:48.314Z,17.50
2022-11-12T00:10:50.574Z,26.13
2022-11-12T00:13:52.428Z,20.03
2022-11-12T00:16:54.568Z,16.03
2022-11-12T00:19:56.511Z,14.40
2022-11-12T00:22:58.688Z,16.67
2022-11-12T00:26:01.709Z,19.53
2022-11-12T00:29:03.978Z,17.53
2022-11-12T00:32:07.600Z,18.40
2022-11-12T00:35:13.706Z,14.90
2022-11-12T00:38:16.122Z,14.80
2022-11-12T00:41:18.329Z,13.63
2022-11-12T00:44:20.494Z,18.10
2022-11-12T00:47:22.619Z,16.27
2022-11-12T00:50:25.590Z,15.60
2022-11-12T00:53:27.849Z,14.77
2022-11-12T00:56:35.322Z,17.33
2022-11-12T00:59:37.703Z,14.43
2022-11-12T01:02:44.193Z,13.57
2022-11-12T01:05:48.672Z,15.87
2022-11-12T01:08:51.006Z,13.33
2022-11-12T01:11:53.171Z,14.87
2022-11-12T01:14:55.656Z,15.30
2022-11-12T01:17:57.822Z,13.60
2022-11-12T01:21:04.592Z,14.30
2022-11-12T01:24:07.303Z,14.07
2022-11-12T01:27:09.162Z,11.27
2022-11-12T01:30:11.717Z,15.93
2022-11-12T01:33:13.609Z,12.97
2022-11-12T01:36:18.198Z,13.07
2022-11-12T01:39:20.277Z,11.10
2022-11-12T01:42:26.473Z,14.40
2022-11-12T01:45:29.049Z,11.57
2022-11-12T01:48:51.991Z,12.00
2022-11-12T01:51:56.407Z,14.03
2022-11-12T01:55:05.595Z,13.57
2022-11-12T01:58:14.061Z,12.60
2022-11-12T02:01:16.328Z,14.40
2022-11-12T02:04:18.668Z,11.30
2022-11-12T02:07:23.162Z,13.63
2022-11-12T02:10:25.785Z,13.40
2022-11-12T02:13:46.415Z,12.87
2022-11-12T02:16:49.197Z,11.03
2022-11-12T02:19:53.005Z,10.30
2022-11-12T02:22:54.906Z,13.17
2022-11-12T02:25:57.140Z,13.07
2022-11-12T02:28:59.160Z,12.33
2022-11-12T02:32:01.379Z,12.17
2022-11-12T02:35:03.440Z,9.73
2022-11-12T02:38:06.931Z,12.23
2022-11-12T02:41:08.855Z,16.20
2022-11-12T02:44:11.014Z,11.63
2022-11-12T02:47:12.866Z,14.50
2022-11-12T02:50:15.401Z,10.77
2022-11-12T02:53:17.360Z,11.17
2022-11-12T02:56:19.503Z,8.37
2022-11-12T02:59:21.414Z,16.57
2022-11-12T03:02:23.586Z,14.00
2022-11-12T03:05:31.189Z,9.10
2022-11-12T03:08:33.349Z,13.03
2022-11-12T03:11:35.284Z,10.67
2022-11-12T03:14:37.567Z,10.27
2022-11-12T03:17:39.434Z,10.23
2022-11-12T03:20:41.830Z,10.67
2022-11-12T03:23:43.675Z,9.10
2022-11-12T03:26:45.820Z,11.80
2022-11-12T03:29:47.753Z,8.97
2022-11-12T03:32:49.869Z,7.47
2022-11-12T03:35:52.126Z,13.60
2022-11-12T03:38:54.298Z,7.30
2022-11-12T03:41:56.195Z,10.13
2022-11-12T03:44:58.356Z,10.07
2022-11-12T03:48:00.325Z,7.70
2022-11-12T03:51:02.474Z,9.87
2022-11-12T03:54:04.608Z,10.57
2022-11-12T03:57:06.745Z,8.83
2022-11-12T04:00:10.432Z,10.20
2022-11-12T04:03:12.614Z,9.73
2022-11-12T04:06:32.951Z,10.53
2022-11-12T04:09:35.061Z,8.40
2022-11-12T04:12:55.602Z,9.90
2022-11-12T04:16:17.962Z,10.87
2022-11-12T04:19:38.388Z,10.27
2022-11-12T04:22:40.532Z,9.33
2022-11-12T04:26:01.093Z,10.37
2022-11-12T04:29:22.040Z,8.00
2022-11-12T04:32:24.172Z,10.30
2022-11-12T04:35:27.105Z,7.80
2022-11-12T04:38:29.180Z,7.43
2022-11-12T04:41:50.189Z,11.23
2022-11-12T04:45:01.511Z,7.83
2022-11-12T04:48:03.921Z,9.53
2022-11-12T04:51:24.938Z,8.27
2022-11-12T04:54:27.086Z,10.77
2022-11-12T04:57:28.969Z,8.80
2022-11-12T05:00:31.587Z,10.67
2022-11-12T05:03:33.478Z,10.33
2022-11-12T05:06:54.454Z,8.17
2022-11-12T05:09:56.376Z,12.00
2022-11-12T05:12:58.721Z,11.83
2022-11-12T05:16:01.586Z,17.20
2022-11-12T05:19:04.880Z,12.87
2022-11-12T05:22:07.339Z,13.17
2022-11-12T05:25:09.925Z,11.43
2022-11-12T05:28:11.777Z,10.77
2022-11-12T05:31:13.937Z,12.73
2022-11-12T05:34:21.600Z,14.63
2022-11-12T05:37:25.079Z,9.70
2022-11-12T05:40:27.003Z,10.03
2022-11-12T05:43:29.163Z,9.73
2022-11-12T05:46:31.112Z,12.87
2022-11-12T05:49:33.244Z,12.90
2022-11-12T05:52:35.161Z,11.13
2022-11-12T05:55:37.398Z,10.07
2022-11-12T05:58:39.377Z,11.17
2022-11-12T06:01:44.639Z,12.83
2022-11-12T06:04:46.547Z,10.00
2022-11-12T06:07:48.867Z,12.30
2022-11-12T06:10:55.162Z,9.17
2022-11-12T06:13:57.322Z,13.23
2022-11-12T06:16:59.174Z,8.77
2022-11-12T06:20:01.440Z,11.03
2022-11-12T06:23:04.293Z,10.50
2022-11-12T06:26:06.476Z,13.57
2022-11-12T06:29:08.443Z,7.73
2022-11-12T06:32:11.161Z,11.93
2022-11-12T06:35:13.495Z,8.37
2022-11-12T06:38:15.747Z,8.60
2022-11-12T06:41:17.936Z,8.93
2022-11-12T06:44:22.303Z,9.97
2022-11-12T06:47:24.556Z,10.23
2022-11-12T06:50:26.714Z,10.87
2022-11-12T06:53:28.568Z,12.60
2022-11-12T06:56:30.710Z,11.10
2022-11-12T06:59:32.597Z,12.03
2022-11-12T07:02:34.747Z,12.43
2022-11-12T07:05:38.282Z,11.57
2022-11-12T07:08:41.543Z,10.90
2022-11-12T07:11:43.481Z,13.47
2022-11-12T07:14:46.649Z,10.73
2022-11-12T07:17:48.547Z,13.03
2022-11-12T07:20:50.801Z,8.87
2022-11-12T07:23:52.887Z,12.20
2022-11-12T07:26:54.995Z,10.50
2022-11-12T07:29:57.247Z,10.77
2022-11-12T07:33:01.802Z,9.13
2022-11-12T07:36:09.310Z,10.03
2022-11-12T07:39:13.288Z,11.80
2022-11-12T07:42:15.257Z,9.30
2022-11-12T07:45:17.402Z,9.30
2022-11-12T07:48:19.385Z,8.77
2022-11-12T07:51:23.942Z,12.03
2022-11-12T07:54:25.806Z,10.67
2022-11-12T07:57:28.135Z,9.63
2022-11-12T08:00:30.027Z,10.27
2022-11-12T08:03:32.203Z,10.17
2022-11-12T08:06:34.857Z,12.53
2022-11-12T08:09:36.998Z,15.00
2022-11-12T08:12:38.869Z,13.90
2022-11-12T08:15:41.041Z,11.63
2022-11-12T08:18:44.406Z,12.17
2022-11-12T08:21:46.732Z,10.23
2022-11-12T08:24:48.735Z,13.67
2022-11-12T08:27:55.371Z,12.00
2022-11-12T08:30:57.927Z,11.47
2022-11-12T08:34:11.878Z,12.60
2022-11-12T08:37:15.293Z,14.30
2022-11-12T08:40:17.448Z,15.07
2022-11-12T08:43:19.538Z,12.10
2022-11-12T08:46:21.667Z,12.10
2022-11-12T08:49:23.607Z,13.73
2022-11-12T08:52:25.768Z,11.53
2022-11-12T08:55:28.794Z,12.20
2022-11-12T08:58:31.158Z,15.43
2022-11-12T09:01:33.180Z,14.53
2022-11-12T09:04:35.354Z,11.87
2022-11-12T09:07:49.487Z,13.47
2022-11-12T09:10:52.979Z,14.40
2022-11-12T09:13:54.973Z,15.37
2022-11-12T09:16:57.190Z,16.03
2022-11-12T09:19:59.123Z,13.40
2022-11-12T09:23:04.071Z,15.73
2022-11-12T09:26:06.200Z,17.97
2022-11-12T09:29:10.695Z,13.13
2022-11-12T09:32:12.623Z,15.53
2022-11-12T09:35:14.874Z,13.70
2022-11-12T09:38:18.525Z,14.23
2022-11-12T09:41:39.103Z,15.53
2022-11-12T09:44:44.058Z,17.10
2022-11-12T09:47:53.546Z,14.63
2022-11-12T09:51:10.271Z,17.10
2022-11-12T09:54:18.384Z,13.73
2022-11-12T09:57:20.432Z,14.97
2022-11-12T10:00:22.796Z,14.27
2022-11-12T10:03:44.017Z,16.87
2022-11-12T10:07:08.924Z,17.27
2022-11-12T10:10:30.526Z,15.60
2022-11-12T10:13:57.932Z,15.57
2022-11-12T10:17:17.183Z,16.70
2022-11-12T10:20:38.701Z,19.08
2022-11-12T10:27:22.900Z,16.60
2022-11-12T10:30:25.807Z,21.83
2022-11-12T10:33:32.005Z,19.30
2022-11-12T10:36:36.852Z,17.70
2022-11-12T10:39:51.500Z,20.33
2022-11-12T10:43:03.655Z,24.45
2022-11-12T10:46:23.993Z,21.52
2022-11-12T10:49:25.828Z,17.48
2022-11-12T10:52:28.068Z,22.05
2022-11-12T10:55:32.385Z,22.88
2022-11-12T10:58:39.049Z,19.00
2022-11-12T11:01:56.644Z,21.20
2022-11-12T11:04:58.923Z,20.70
2022-11-12T11:08:02.350Z,24.17
2022-11-12T11:11:28.684Z,20.25
2022-11-12T11:14:35.591Z,15.40
2022-11-12T11:17:37.893Z,24.08
2022-11-12T11:20:46.856Z,19.48
2022-11-12T11:24:03.041Z,24.75
2022-11-12T11:27:04.972Z,20.38
2022-11-12T11:30:20.013Z,18.58
2022-11-12T11:33:30.422Z,20.55
2022-11-12T11:36:32.546Z,21.13
2022-11-12T11:40:00.426Z,22.10
2022-11-12T11:43:15.622Z,22.48
2022-11-12T11:46:23.487Z,24.85
2022-11-12T11:49:28.590Z,23.83
2022-11-12T11:52:30.421Z,24.63
2022-11-12T11:55:50.257Z,26.83
2022-11-12T11:59:11.920Z,21.58
2022-11-12T12:02:41.803Z,24.73
2022-11-12T12:06:05.258Z,20.92
2022-11-12T12:09:45.962Z,23.92
2022-11-12T12:13:00.456Z,22.35
2022-11-12T12:16:22.281Z,23.85
2022-11-12T12:19:32.590Z,20.77
2022-11-12T12:23:02.586Z,19.15
2022-11-12T12:26:11.138Z,21.38
2022-11-12T12:29:19.521Z,21.98
2022-11-12T12:32:35.103Z,24.40
2022-11-12T12:35:46.267Z,24.42
2022-11-12T12:39:08.325Z,34.35
2022-11-12T12:42:27.824Z,24.83
2022-11-12T12:45:41.909Z,24.10
2022-11-12T12:48:46.155Z,24.33
2022-11-12T12:51:52.948Z,21.35
2022-11-12T12:54:58.248Z,22.08
2022-11-12T12:58:00.352Z,22.77
2022-11-12T13:01:09.269Z,18.60
2022-11-12T13:04:11.922Z,22.40
2022-11-12T13:07:14.378Z,20.15
2022-11-12T13:10:44.538Z,25.90
2022-11-12T13:13:47.238Z,20.77
2022-11-12T13:16:52.128Z,23.88
2022-11-12T13:19:54.282Z,23.20
2022-11-12T13:22:56.214Z,22.20
2022-11-12T13:26:49.836Z,26.77
2022-11-12T13:29:51.727Z,23.23
2022-11-12T13:32:58.088Z,25.27
2022-11-12T13:36:26.849Z,28.08
2022-11-12T13:39:32.237Z,28.10
2022-11-12T13:42:50.738Z,27.08
2022-11-12T13:45:58.383Z,26.73
2022-11-12T13:49:12.262Z,23.92
2022-11-12T13:52:15.984Z,22.40
2022-11-12T13:55:22.477Z,25.88
2022-11-12T13:58:31.129Z,26.02
2022-11-12T14:01:34.395Z,24.13
2022-11-12T14:04:36.581Z,24.95
2022-11-12T14:08:25.006Z,25.27
2022-11-12T14:11:38.664Z,26.08
2022-11-12T14:14:59.455Z,28.60
2022-11-12T14:18:26.675Z,27.88
2022-11-12T14:21:29.829Z,26.17
2022-11-12T14:24:34.260Z,34.15
2022-11-12T14:27:37.570Z,38.55
2022-11-12T14:30:45.336Z,55.55
2022-11-12T14:33:47.275Z,47.78
2022-11-12T14:36:49.698Z,39.08
2022-11-12T14:39:51.775Z,39.75
2022-11-12T14:42:54.889Z,31.88
2022-11-12T14:45:59.068Z,30.48
2022-11-12T14:49:04.381Z,30.53
2022-11-12T14:52:14.916Z,32.15
2022-11-12T14:55:21.304Z,35.80
2022-11-12T14:58:27.191Z,41.42
2022-11-12T15:05:04.131Z,39.08
2022-11-12T15:08:11.644Z,32.70
2022-11-12T15:11:28.617Z,33.00
2022-11-12T15:14:31.106Z,35.53
2022-11-12T15:17:35.539Z,33.50
2022-11-12T15:20:37.815Z,31.05
2022-11-12T15:23:51.921Z,34.27
2022-11-12T15:26:57.010Z,29.30
2022-11-12T15:30:17.187Z,28.23
2022-11-12T15:33:22.650Z,28.53
2022-11-12T15:36:24.787Z,30.30
2022-11-12T15:39:28.653Z,37.53
2022-11-12T15:42:33.933Z,41.20
2022-11-12T15:45:36.103Z,41.53
2022-11-12T15:48:38.186Z,45.27
2022-11-12T15:51:40.326Z,39.70
2022-11-12T15:54:42.271Z,54.50
2022-11-12T15:57:48.433Z,85.43
2022-11-12T16:00:51.060Z,104.07
2022-11-12T16:03:53.319Z,112.40
2022-11-12T16:06:55.218Z,96.47
2022-11-12T16:09:57.361Z,100.10
2022-11-12T16:13:00.957Z,101.60
2022-11-12T16:16:07.233Z,109.57
2022-11-12T16:19:14.246Z,119.30
2022-11-12T16:22:16.625Z,103.10
2022-11-12T16:25:19.872Z,81.63
2022-11-12T16:28:22.031Z,67.07
2022-11-12T16:31:24.921Z,55.20
2022-11-12T16:34:27.295Z,55.83
2022-11-12T16:37:29.191Z,52.17
2022-11-12T16:40:31.336Z,55.87
2022-11-12T16:43:33.314Z,56.63
2022-11-12T16:46:40.289Z,56.03
2022-11-12T16:49:42.839Z,57.83
2022-11-12T16:52:45.523Z,56.23
2022-11-12T16:55:47.508Z,66.87
2022-11-12T16:58:49.996Z,73.70
2022-11-12T17:01:51.875Z,93.73
2022-11-12T17:04:54.054Z,83.83
2022-11-12T17:07:57.880Z,79.93
2022-11-12T17:11:06.611Z,69.77
2022-11-12T17:14:08.778Z,71.20
2022-11-12T17:17:10.950Z,65.40
2022-11-12T17:20:12.856Z,59.85
2022-11-12T17:23:14.993Z,56.57
2022-11-12T17:26:21.685Z,53.33
2022-11-12T17:29:24.991Z,53.33
2022-11-12T17:32:26.919Z,52.30
2022-11-12T17:35:31.403Z,47.95
2022-11-12T17:38:33.372Z,48.63
2022-11-12T17:41:35.554Z,53.47
2022-11-12T17:44:37.476Z,59.93
2022-11-12T17:47:40.757Z,53.97
2022-11-12T17:50:42.807Z,52.50
2022-11-12T17:53:45.137Z,49.67
2022-11-12T17:56:47.036Z,57.37
2022-11-12T17:59:49.308Z,54.40
2022-11-12T18:02:51.970Z,66.82
2022-11-12T18:06:00.691Z,57.33
2022-11-12T18:09:05.765Z,54.10
2022-11-12T18:12:08.087Z,50.67
2022-11-12T18:15:13.109Z,51.27
2022-11-12T18:18:15.391Z,51.33
2022-11-12T18:21:17.852Z,59.70
2022-11-12T18:24:20.139Z,77.87
2022-11-12T18:27:22.136Z,84.88
2022-11-12T18:30:24.332Z,86.83
2022-11-12T18:33:26.602Z,98.68
2022-11-12T18:36:29.157Z,133.98
2022-11-12T18:39:34.385Z,118.93
2022-11-12T18:42:36.556Z,99.25
2022-11-12T18:45:41.073Z,94.47
2022-11-12T18:48:44.396Z,75.77
2022-11-12T18:51:46.403Z,74.28
2022-11-12T18:54:48.520Z,77.97
2022-11-12T18:57:54.607Z,74.20
2022-11-12T19:01:06.895Z,77.23
2022-11-12T19:04:10.962Z,60.03
2022-11-12T19:07:14.733Z,60.20
2022-11-12T19:10:18.336Z,73.07
2022-11-12T19:13:20.542Z,88.07
2022-11-12T19:16:23.385Z,84.53
2022-11-12T19:19:25.603Z,100.60
2022-11-12T19:22:29.828Z,104.83
2022-11-12T19:25:35.460Z,120.60
2022-11-12T19:28:37.524Z,95.03
2022-11-12T19:31:40.934Z,64.97
2022-11-12T19:34:42.886Z,62.03
2022-11-12T19:37:45.926Z,65.32
2022-11-12T19:40:48.335Z,63.55
2022-11-12T19:43:51.067Z,61.03
2022-11-12T19:47:03.536Z,65.53
2022-11-12T19:50:07.351Z,63.57
2022-11-12T19:53:09.257Z,57.97
2022-11-12T19:56:13.763Z,56.08
2022-11-12T19:59:17.304Z,63.13
2022-11-12T20:02:20.175Z,60.70
2022-11-12T20:05:22.285Z,60.65
2022-11-12T20:08:25.400Z,66.00
2022-11-12T20:11:27.478Z,60.08
2022-11-12T20:14:30.005Z,70.10
2022-11-12T20:17:33.891Z,76.63
2022-11-12T20:20:38.329Z,98.55
2022-11-12T20:23:45.816Z,98.53
2022-11-12T20:26:49.050Z,95.57
2022-11-12T20:29:51.094Z,90.33
2022-11-12T20:32:53.313Z,86.00
2022-11-12T20:35:56.817Z,81.07
2022-11-12T20:39:04.158Z,75.47
2022-11-12T20:42:06.058Z,75.15
2022-11-12T20:45:08.875Z,77.50
2022-11-12T20:48:10.725Z,76.30
2022-11-12T20:51:24.240Z,78.93
2022-11-12T20:54:27.261Z,74.00
2022-11-12T20:57:29.459Z,71.53
2022-11-12T21:00:31.512Z,84.95
2022-11-12T21:03:35.807Z,75.13
2022-11-12T21:06:37.745Z,77.10
2022-11-12T21:09:40.013Z,78.93
2022-11-12T21:12:42.046Z,71.70
2022-11-12T21:15:48.576Z,76.07
2022-11-12T21:18:50.433Z,71.10
2022-11-12T21:21:52.639Z,75.17
2022-11-12T21:24:54.499Z,71.90
2022-11-12T21:27:57.807Z,68.07
2022-11-12T21:31:04.778Z,74.50
2022-11-12T21:34:07.082Z,66.33
2022-11-12T21:37:10.207Z,65.87
2022-11-12T21:40:12.328Z,64.57
2022-11-12T21:43:14.469Z,59.70
2022-11-12T21:46:20.294Z,65.17
2022-11-12T21:49:22.259Z,64.07
2022-11-12T21:52:24.460Z,84.03
2022-11-12T21:55:26.453Z,79.73
2022-11-12T21:58:29.617Z,82.07
2022-11-12T22:01:34.217Z,84.30
2022-11-12T22:04:36.727Z,80.40
2022-11-12T22:07:38.614Z,77.80
2022-11-12T22:10:40.780Z,79.50
2022-11-12T22:13:43.001Z,74.03
2022-11-12T22:16:45.219Z,68.80
2022-11-12T22:19:47.061Z,69.83
2022-11-12T22:22:53.270Z,61.97
2022-11-12T22:25:58.877Z,72.13
2022-11-12T22:29:01.805Z,66.27
2022-11-12T22:32:03.949Z,68.60
2022-11-12T22:35:06.698Z,77.03
2022-11-12T22:38:08.629Z,73.50
2022-11-12T22:41:13.653Z,78.27
2022-11-12T22:44:15.531Z,70.10
2022-11-12T22:47:17.737Z,70.03
2022-11-12T22:50:19.697Z,72.80
2022-11-12T22:53:21.821Z,67.50
2022-11-12T22:56:25.206Z,85.43
2022-11-12T22:59:27.442Z,69.70
2022-11-12T23:02:29.281Z,71.40
2022-11-12T23:05:31.666Z,70.53
2022-11-12T23:08:35.885Z,73.77
2022-11-12T23:11:38.369Z,82.63
2022-11-12T23:14:40.240Z,78.47
2022-11-12T23:17:42.371Z,113.37
2022-11-12T23:20:44.271Z,69.57
2022-11-12T23:23:46.707Z,63.33
2022-11-12T23:26:48.801Z,48.27
2022-11-12T23:29:51.371Z,53.03
2022-11-12T23:32:53.299Z,53.37
2022-11-12T23:36:02.861Z,46.83
2022-11-12T23:39:04.767Z,56.83
2022-11-12T23:42:06.877Z,54.33
2022-11-12T23:45:09.555Z,51.17
2022-11-12T23:48:11.712Z,54.03
2022-11-12T23:51:19.262Z,47.83
2022-11-12T23:54:21.385Z,49.67
2022-11-12T23:57:23.301Z,48.83
